Airfield :







YOU CAN JOIN US ON...

 
LOGIN :

Register | Disclaimer

   EN    FR    IT 

 









Legend :    VFR   Marginal VFR   IFR   Intensive IFR   Very Intensive IFR
Visi :
Ceiling :
>= 8 km
>= 3000ft
5 to 8 km
1000 to 3000 ft
1500m to 5 km
500 to 1000 ft
800 to 1500m
200 to 500 ft
< 800m
< 200 ft
Symbols :   Thunderstorms  Fog  Heavy snow  Heavy precipitations  Wind > 20 kt






- Airport Elevation : 133 ft
- IATA code : BED


KBED - Laurence G Hanscom Field

CURRENT METAR :
  • 290505Z AUTO 10004KT 7SM -RA SCT005 OVC044 07/04 A3016 RMK AO2 P0000 T00670044

EXPIRED METARs :
  • 290451Z AUTO 10006KT 9SM -RA BKN005 OVC045 07/04 A3015 RMK AO2 SLP223 P0002 T00670044 401441028
  • 290433Z AUTO 11004KT 9SM -RA BKN005 OVC048 07/05 A3015 RMK AO2 P0001 T00720050
  • 290358Z AUTO 13004KT 6SM -RA BR FEW006 SCT017 OVC038 07/05 A3016 RMK AO2 P0000 T00720050
  • 290337Z AUTO 16003KT 6SM -RA BR BKN017 OVC038 07/05 A3018 RMK AO2 P0001 T00720050
  • 290251Z AUTO 07004KT 8SM -RA OVC042 07/05 A3018 RMK AO2 SLP235 P0004 60005 T00720050 51006

TAF KBED
Valid from the 29 at 00:00 until the 30 at 00:00 UTC


282325Z 2900/2924 17003KT 6SM -RA BR OVC060
FM290300 00000KT P6SM -RA OVC030
FM290800 11003KT 6SM -RA BR OVC010
FM292000 10009KT 5SM -RA BR OVC008



MET'MAP, your aeronautical weather chart ! - Copyright ORBIFLY December 2007 - Disclaimer

ORBIFLY MET'MAP TEAM :

Programming & Development : Alexandra Zaïnal
Concept & original design : Baudouin d'Aumeries
Assistance for programming : Marc-Olivier Méhu
Technical & hardware support : Manuel Goepfert

Contact : metmap@orbifly.com




SOURCES & CREDITS :

   NOAA